sensor_id;sensor_type;location;lat;lon;timestamp;temperature;humidity
5711;DHT22;61291;52.524;13.422;2023-04-28T00:02:15;4.70;90.00
5711;DHT22;61291;52.524;13.422;2023-04-28T00:04:41;4.70;90.00
5711;DHT22;61291;52.524;13.422;2023-04-28T00:07:06;4.60;90.00
5711;DHT22;61291;52.524;13.422;2023-04-28T00:09:32;4.60;90.10
5711;DHT22;61291;52.524;13.422;2023-04-28T00:11:57;4.50;90.30
5711;DHT22;61291;52.524;13.422;2023-04-28T00:14:24;4.50;90.30
5711;DHT22;61291;52.524;13.422;2023-04-28T00:16:49;4.40;91.20
5711;DHT22;61291;52.524;13.422;2023-04-28T00:19:15;4.40;91.30
5711;DHT22;61291;52.524;13.422;2023-04-28T00:21:40;4.30;91.50
5711;DHT22;61291;52.524;13.422;2023-04-28T00:24:06;4.20;91.60
5711;DHT22;61291;52.524;13.422;2023-04-28T00:26:31;4.10;91.60
5711;DHT22;61291;52.524;13.422;2023-04-28T00:28:57;4.10;91.50
5711;DHT22;61291;52.524;13.422;2023-04-28T00:31:22;4.20;91.50
5711;DHT22;61291;52.524;13.422;2023-04-28T00:33:48;4.20;91.40
5711;DHT22;61291;52.524;13.422;2023-04-28T00:36:13;4.20;91.30
5711;DHT22;61291;52.524;13.422;2023-04-28T00:38:39;4.20;91.30
5711;DHT22;61291;52.524;13.422;2023-04-28T00:41:04;4.30;91.10
5711;DHT22;61291;52.524;13.422;2023-04-28T00:43:30;4.30;91.20
5711;DHT22;61291;52.524;13.422;2023-04-28T00:45:55;4.40;91.10
5711;DHT22;61291;52.524;13.422;2023-04-28T00:48:21;4.40;91.00
5711;DHT22;61291;52.524;13.422;2023-04-28T00:50:48;4.30;91.00
5711;DHT22;61291;52.524;13.422;2023-04-28T00:53:13;4.30;90.90
5711;DHT22;61291;52.524;13.422;2023-04-28T00:55:39;4.20;91.00
5711;DHT22;61291;52.524;13.422;2023-04-28T00:58:05;4.20;91.90
5711;DHT22;61291;52.524;13.422;2023-04-28T01:00:32;4.20;91.60
5711;DHT22;61291;52.524;13.422;2023-04-28T01:02:58;4.30;91.50
5711;DHT22;61291;52.524;13.422;2023-04-28T01:05:28;4.30;91.40
5711;DHT22;61291;52.524;13.422;2023-04-28T01:07:53;4.30;91.30
5711;DHT22;61291;52.524;13.422;2023-04-28T01:10:19;4.20;91.30
5711;DHT22;61291;52.524;13.422;2023-04-28T01:12:45;4.20;91.50
5711;DHT22;61291;52.524;13.422;2023-04-28T01:15:15;4.30;91.50
5711;DHT22;61291;52.524;13.422;2023-04-28T01:17:41;4.40;91.50
5711;DHT22;61291;52.524;13.422;2023-04-28T01:20:07;4.40;91.30
5711;DHT22;61291;52.524;13.422;2023-04-28T01:22:33;4.50;91.30
5711;DHT22;61291;52.524;13.422;2023-04-28T01:24:58;4.50;91.20
5711;DHT22;61291;52.524;13.422;2023-04-28T01:27:24;4.50;91.20
5711;DHT22;61291;52.524;13.422;2023-04-28T01:29:50;4.50;91.30
5711;DHT22;61291;52.524;13.422;2023-04-28T01:32:15;4.50;91.30
5711;DHT22;61291;52.524;13.422;2023-04-28T01:34:41;4.40;91.30
5711;DHT22;61291;52.524;13.422;2023-04-28T01:37:06;4.40;91.30
5711;DHT22;61291;52.524;13.422;2023-04-28T01:39:32;4.40;91.90
5711;DHT22;61291;52.524;13.422;2023-04-28T01:41:57;4.40;92.00
5711;DHT22;61291;52.524;13.422;2023-04-28T01:44:23;4.40;92.00
5711;DHT22;61291;52.524;13.422;2023-04-28T01:46:48;4.30;91.90
5711;DHT22;61291;52.524;13.422;2023-04-28T01:49:14;4.30;91.90
5711;DHT22;61291;52.524;13.422;2023-04-28T01:51:39;4.30;92.00
5711;DHT22;61291;52.524;13.422;2023-04-28T01:54:06;4.20;91.90
5711;DHT22;61291;52.524;13.422;2023-04-28T01:56:32;4.20;92.00
5711;DHT22;61291;52.524;13.422;2023-04-28T01:58:57;4.20;92.00
5711;DHT22;61291;52.524;13.422;2023-04-28T02:01:23;4.20;92.10
5711;DHT22;61291;52.524;13.422;2023-04-28T02:03:48;4.20;92.10
5711;DHT22;61291;52.524;13.422;2023-04-28T02:06:14;4.20;92.20
5711;DHT22;61291;52.524;13.422;2023-04-28T02:08:40;4.20;92.20
5711;DHT22;61291;52.524;13.422;2023-04-28T02:11:05;4.20;92.20
5711;DHT22;61291;52.524;13.422;2023-04-28T02:13:31;4.20;92.20
5711;DHT22;61291;52.524;13.422;2023-04-28T02:15:59;4.20;92.30
5711;DHT22;61291;52.524;13.422;2023-04-28T02:18:25;4.20;92.30
5711;DHT22;61291;52.524;13.422;2023-04-28T02:20:51;4.10;92.30
5711;DHT22;61291;52.524;13.422;2023-04-28T02:23:16;4.20;92.40
5711;DHT22;61291;52.524;13.422;2023-04-28T02:25:42;4.20;92.50
5711;DHT22;61291;52.524;13.422;2023-04-28T02:28:07;4.10;92.50
5711;DHT22;61291;52.524;13.422;2023-04-28T02:30:33;4.10;92.70
5711;DHT22;61291;52.524;13.422;2023-04-28T02:32:58;4.10;92.70
5711;DHT22;61291;52.524;13.422;2023-04-28T02:35:23;4.10;92.80
5711;DHT22;61291;52.524;13.422;2023-04-28T02:37:49;4.10;92.80
5711;DHT22;61291;52.524;13.422;2023-04-28T02:40:15;4.10;92.70
5711;DHT22;61291;52.524;13.422;2023-04-28T02:42:40;4.10;92.90
5711;DHT22;61291;52.524;13.422;2023-04-28T02:45:06;4.10;92.90
5711;DHT22;61291;52.524;13.422;2023-04-28T02:47:32;4.00;93.10
5711;DHT22;61291;52.524;13.422;2023-04-28T02:49:58;4.00;92.90
5711;DHT22;61291;52.524;13.422;2023-04-28T02:52:23;4.00;92.90
5711;DHT22;61291;52.524;13.422;2023-04-28T02:54:48;4.10;92.90
5711;DHT22;61291;52.524;13.422;2023-04-28T02:57:18;4.20;93.10
5711;DHT22;61291;52.524;13.422;2023-04-28T02:59:44;4.10;93.00
5711;DHT22;61291;52.524;13.422;2023-04-28T03:02:10;4.20;93.10
5711;DHT22;61291;52.524;13.422;2023-04-28T03:04:36;4.20;93.10
5711;DHT22;61291;52.524;13.422;2023-04-28T03:07:02;4.30;93.10
5711;DHT22;61291;52.524;13.422;2023-04-28T03:09:27;4.30;93.00
5711;DHT22;61291;52.524;13.422;2023-04-28T03:11:53;4.40;93.00
5711;DHT22;61291;52.524;13.422;2023-04-28T03:14:19;4.40;93.00
5711;DHT22;61291;52.524;13.422;2023-04-28T03:16:45;4.40;92.90
5711;DHT22;61291;52.524;13.422;2023-04-28T03:19:10;4.50;93.00
5711;DHT22;61291;52.524;13.422;2023-04-28T03:21:36;4.50;93.00
5711;DHT22;61291;52.524;13.422;2023-04-28T03:24:01;4.60;92.90
5711;DHT22;61291;52.524;13.422;2023-04-28T03:26:26;4.60;92.90
5711;DHT22;61291;52.524;13.422;2023-04-28T03:28:52;4.50;92.90
5711;DHT22;61291;52.524;13.422;2023-04-28T03:31:17;4.60;92.90
5711;DHT22;61291;52.524;13.422;2023-04-28T03:33:43;4.70;92.90
5711;DHT22;61291;52.524;13.422;2023-04-28T03:36:11;4.80;92.80
5711;DHT22;61291;52.524;13.422;2023-04-28T03:38:36;4.80;92.70
5711;DHT22;61291;52.524;13.422;2023-04-28T03:41:02;4.80;92.60
5711;DHT22;61291;52.524;13.422;2023-04-28T03:43:27;5.00;92.50
5711;DHT22;61291;52.524;13.422;2023-04-28T03:45:53;5.10;92.50
5711;DHT22;61291;52.524;13.422;2023-04-28T03:48:18;5.10;92.30
5711;DHT22;61291;52.524;13.422;2023-04-28T03:50:44;5.20;92.20
5711;DHT22;61291;52.524;13.422;2023-04-28T03:53:10;5.20;92.20
5711;DHT22;61291;52.524;13.422;2023-04-28T03:55:35;5.30;92.20
5711;DHT22;61291;52.524;13.422;2023-04-28T03:58:01;5.40;92.20
5711;DHT22;61291;52.524;13.422;2023-04-28T04:00:26;5.40;92.00
5711;DHT22;61291;52.524;13.422;2023-04-28T04:02:52;5.50;91.80
5711;DHT22;61291;52.524;13.422;2023-04-28T04:05:17;5.60;91.80
5711;DHT22;61291;52.524;13.422;2023-04-28T04:07:43;5.80;91.60
5711;DHT22;61291;52.524;13.422;2023-04-28T04:10:08;5.90;91.60
5711;DHT22;61291;52.524;13.422;2023-04-28T04:12:34;6.10;91.60
5711;DHT22;61291;52.524;13.422;2023-04-28T04:14:59;6.20;91.50
5711;DHT22;61291;52.524;13.422;2023-04-28T04:17:25;6.40;91.50
5711;DHT22;61291;52.524;13.422;2023-04-28T04:19:50;6.60;91.40
5711;DHT22;61291;52.524;13.422;2023-04-28T04:22:16;6.80;91.30
5711;DHT22;61291;52.524;13.422;2023-04-28T04:24:41;7.00;91.10
5711;DHT22;61291;52.524;13.422;2023-04-28T04:27:07;7.20;90.90
5711;DHT22;61291;52.524;13.422;2023-04-28T04:29:32;7.50;90.80
5711;DHT22;61291;52.524;13.422;2023-04-28T04:31:58;7.60;90.60
5711;DHT22;61291;52.524;13.422;2023-04-28T04:34:23;7.80;90.00
5711;DHT22;61291;52.524;13.422;2023-04-28T04:36:49;7.90;90.10
5711;DHT22;61291;52.524;13.422;2023-04-28T04:39:14;8.10;89.10
5711;DHT22;61291;52.524;13.422;2023-04-28T04:41:40;8.20;89.00
5711;DHT22;61291;52.524;13.422;2023-04-28T04:44:06;8.20;88.80
5711;DHT22;61291;52.524;13.422;2023-04-28T04:46:31;8.30;88.50
5711;DHT22;61291;52.524;13.422;2023-04-28T04:48:57;8.40;88.10
5711;DHT22;61291;52.524;13.422;2023-04-28T04:51:22;8.70;87.90
5711;DHT22;61291;52.524;13.422;2023-04-28T04:53:48;8.80;87.30
5711;DHT22;61291;52.524;13.422;2023-04-28T04:56:13;8.80;86.70
5711;DHT22;61291;52.524;13.422;2023-04-28T04:58:42;8.80;86.20
5711;DHT22;61291;52.524;13.422;2023-04-28T05:01:08;9.00;86.20
5711;DHT22;61291;52.524;13.422;2023-04-28T05:03:34;9.30;84.70
5711;DHT22;61291;52.524;13.422;2023-04-28T05:06:00;9.40;84.80
5711;DHT22;61291;52.524;13.422;2023-04-28T05:08:27;9.70;84.60
5711;DHT22;61291;52.524;13.422;2023-04-28T05:10:52;9.70;83.80
5711;DHT22;61291;52.524;13.422;2023-04-28T05:13:18;10.10;82.40
5711;DHT22;61291;52.524;13.422;2023-04-28T05:15:43;10.60;82.30
5711;DHT22;61291;52.524;13.422;2023-04-28T05:18:09;11.00;81.20
5711;DHT22;61291;52.524;13.422;2023-04-28T05:20:35;11.40;77.30
5711;DHT22;61291;52.524;13.422;2023-04-28T05:23:01;11.60;77.50
5711;DHT22;61291;52.524;13.422;2023-04-28T05:25:27;11.70;77.00
5711;DHT22;61291;52.524;13.422;2023-04-28T05:27:52;12.20;76.80
5711;DHT22;61291;52.524;13.422;2023-04-28T05:30:18;13.20;76.30
5711;DHT22;61291;52.524;13.422;2023-04-28T05:32:43;14.00;75.10
5711;DHT22;61291;52.524;13.422;2023-04-28T05:35:09;14.60;74.60
5711;DHT22;61291;52.524;13.422;2023-04-28T05:37:34;15.30;73.00
5711;DHT22;61291;52.524;13.422;2023-04-28T05:40:02;16.10;71.70
5711;DHT22;61291;52.524;13.422;2023-04-28T05:42:27;16.70;70.40
5711;DHT22;61291;52.524;13.422;2023-04-28T05:44:53;16.40;68.70
5711;DHT22;61291;52.524;13.422;2023-04-28T05:47:18;16.40;67.70
5711;DHT22;61291;52.524;13.422;2023-04-28T05:49:44;16.40;67.20
5711;DHT22;61291;52.524;13.422;2023-04-28T05:52:09;16.60;67.10
5711;DHT22;61291;52.524;13.422;2023-04-28T05:54:35;16.30;66.60
5711;DHT22;61291;52.524;13.422;2023-04-28T05:57:00;16.50;66.20
5711;DHT22;61291;52.524;13.422;2023-04-28T05:59:26;17.00;63.60
5711;DHT22;61291;52.524;13.422;2023-04-28T06:01:52;17.50;64.00
5711;DHT22;61291;52.524;13.422;2023-04-28T06:04:18;18.20;63.70
5711;DHT22;61291;52.524;13.422;2023-04-28T06:06:43;18.50;62.90
5711;DHT22;61291;52.524;13.422;2023-04-28T06:09:09;19.00;62.30
5711;DHT22;61291;52.524;13.422;2023-04-28T06:11:35;19.30;62.00
5711;DHT22;61291;52.524;13.422;2023-04-28T06:14:00;19.40;61.50
5711;DHT22;61291;52.524;13.422;2023-04-28T06:16:26;19.50;60.80
5711;DHT22;61291;52.524;13.422;2023-04-28T06:18:51;19.20;60.20
5711;DHT22;61291;52.524;13.422;2023-04-28T06:21:17;18.90;59.90
5711;DHT22;61291;52.524;13.422;2023-04-28T06:23:43;18.70;60.00
5711;DHT22;61291;52.524;13.422;2023-04-28T06:26:09;18.90;60.30
5711;DHT22;61291;52.524;13.422;2023-04-28T06:28:34;18.80;59.90
5711;DHT22;61291;52.524;13.422;2023-04-28T06:31:00;18.30;59.10
5711;DHT22;61291;52.524;13.422;2023-04-28T06:33:25;18.70;59.30
5711;DHT22;61291;52.524;13.422;2023-04-28T06:36:09;18.70;59.20
5711;DHT22;61291;52.524;13.422;2023-04-28T06:38:38;19.30;59.10
5711;DHT22;61291;52.524;13.422;2023-04-28T06:41:04;19.90;59.00
5711;DHT22;61291;52.524;13.422;2023-04-28T06:43:30;21.00;58.80
5711;DHT22;61291;52.524;13.422;2023-04-28T06:45:56;21.60;58.00
5711;DHT22;61291;52.524;13.422;2023-04-28T06:48:22;21.90;57.60
5711;DHT22;61291;52.524;13.422;2023-04-28T06:50:47;22.40;57.30
5711;DHT22;61291;52.524;13.422;2023-04-28T06:53:13;23.10;56.70
5711;DHT22;61291;52.524;13.422;2023-04-28T06:55:38;23.20;56.50
5711;DHT22;61291;52.524;13.422;2023-04-28T06:58:03;22.90;55.90
5711;DHT22;61291;52.524;13.422;2023-04-28T07:00:29;21.60;55.40
5711;DHT22;61291;52.524;13.422;2023-04-28T07:02:55;20.90;55.60
5711;DHT22;61291;52.524;13.422;2023-04-28T07:05:20;20.20;56.00
5711;DHT22;61291;52.524;13.422;2023-04-28T07:07:46;19.80;56.20
5711;DHT22;61291;52.524;13.422;2023-04-28T07:10:12;19.80;56.50
5711;DHT22;61291;52.524;13.422;2023-04-28T07:12:39;19.50;56.10
5711;DHT22;61291;52.524;13.422;2023-04-28T07:15:05;20.10;56.50
5711;DHT22;61291;52.524;13.422;2023-04-28T07:17:31;20.70;56.70
5711;DHT22;61291;52.524;13.422;2023-04-28T07:19:56;21.20;56.30
5711;DHT22;61291;52.524;13.422;2023-04-28T07:22:22;21.60;56.20
5711;DHT22;61291;52.524;13.422;2023-04-28T07:24:47;21.90;55.90
5711;DHT22;61291;52.524;13.422;2023-04-28T07:27:13;21.60;55.10
5711;DHT22;61291;52.524;13.422;2023-04-28T07:29:38;21.80;55.30
5711;DHT22;61291;52.524;13.422;2023-04-28T07:32:04;22.00;55.10
5711;DHT22;61291;52.524;13.422;2023-04-28T07:34:32;21.70;54.80
5711;DHT22;61291;52.524;13.422;2023-04-28T07:36:58;21.10;54.00
5711;DHT22;61291;52.524;13.422;2023-04-28T07:39:23;20.40;54.30
5711;DHT22;61291;52.524;13.422;2023-04-28T07:41:49;20.00;54.10
5711;DHT22;61291;52.524;13.422;2023-04-28T07:44:15;20.10;54.50
5711;DHT22;61291;52.524;13.422;2023-04-28T07:46:40;20.30;54.60
5711;DHT22;61291;52.524;13.422;2023-04-28T07:49:05;19.30;54.50
5711;DHT22;61291;52.524;13.422;2023-04-28T07:51:32;19.00;54.60
5711;DHT22;61291;52.524;13.422;2023-04-28T07:53:58;18.20;54.60
5711;DHT22;61291;52.524;13.422;2023-04-28T07:56:24;17.70;54.90
5711;DHT22;61291;52.524;13.422;2023-04-28T07:58:50;17.00;55.50
5711;DHT22;61291;52.524;13.422;2023-04-28T08:01:16;16.70;56.10
5711;DHT22;61291;52.524;13.422;2023-04-28T08:03:42;16.50;56.90
5711;DHT22;61291;52.524;13.422;2023-04-28T08:06:07;16.30;56.80
5711;DHT22;61291;52.524;13.422;2023-04-28T08:08:33;16.10;56.90
5711;DHT22;61291;52.524;13.422;2023-04-28T08:10:59;16.10;57.10
5711;DHT22;61291;52.524;13.422;2023-04-28T08:13:25;15.90;57.40
5711;DHT22;61291;52.524;13.422;2023-04-28T08:15:52;15.60;57.80
5711;DHT22;61291;52.524;13.422;2023-04-28T08:18:17;15.80;57.80
5711;DHT22;61291;52.524;13.422;2023-04-28T08:20:43;15.60;58.00
5711;DHT22;61291;52.524;13.422;2023-04-28T08:23:08;15.40;58.10
5711;DHT22;61291;52.524;13.422;2023-04-28T08:25:34;15.60;58.30
5711;DHT22;61291;52.524;13.422;2023-04-28T08:28:00;15.70;58.20
5711;DHT22;61291;52.524;13.422;2023-04-28T08:30:27;15.90;58.40
5711;DHT22;61291;52.524;13.422;2023-04-28T08:32:53;16.00;58.40
5711;DHT22;61291;52.524;13.422;2023-04-28T08:35:18;16.10;58.50
5711;DHT22;61291;52.524;13.422;2023-04-28T08:37:44;16.30;58.60
5711;DHT22;61291;52.524;13.422;2023-04-28T08:40:10;16.40;58.50
5711;DHT22;61291;52.524;13.422;2023-04-28T08:42:36;16.60;58.40
5711;DHT22;61291;52.524;13.422;2023-04-28T08:45:05;16.70;58.20
5711;DHT22;61291;52.524;13.422;2023-04-28T08:47:35;16.90;58.20
5711;DHT22;61291;52.524;13.422;2023-04-28T08:52:31;17.20;57.70
5711;DHT22;61291;52.524;13.422;2023-04-28T08:55:01;17.50;57.70
5711;DHT22;61291;52.524;13.422;2023-04-28T08:57:42;17.80;57.60
5711;DHT22;61291;52.524;13.422;2023-04-28T09:00:09;18.10;57.40
5711;DHT22;61291;52.524;13.422;2023-04-28T09:02:34;18.10;57.30
5711;DHT22;61291;52.524;13.422;2023-04-28T09:05:02;18.30;56.90
5711;DHT22;61291;52.524;13.422;2023-04-28T09:07:28;18.00;56.30
5711;DHT22;61291;52.524;13.422;2023-04-28T09:10:15;18.10;56.50
5711;DHT22;61291;52.524;13.422;2023-04-28T09:12:42;18.00;55.80
5711;DHT22;61291;52.524;13.422;2023-04-28T09:15:08;18.10;56.30
5711;DHT22;61291;52.524;13.422;2023-04-28T09:17:50;18.30;56.50
5711;DHT22;61291;52.524;13.422;2023-04-28T09:20:23;18.30;56.50
5711;DHT22;61291;52.524;13.422;2023-04-28T09:22:49;18.60;56.80
5711;DHT22;61291;52.524;13.422;2023-04-28T09:25:16;18.90;56.50
5711;DHT22;61291;52.524;13.422;2023-04-28T09:27:41;18.90;55.80
5711;DHT22;61291;52.524;13.422;2023-04-28T09:30:07;19.00;55.90
5711;DHT22;61291;52.524;13.422;2023-04-28T09:32:34;19.10;55.80
5711;DHT22;61291;52.524;13.422;2023-04-28T09:35:01;19.10;55.60
5711;DHT22;61291;52.524;13.422;2023-04-28T09:37:27;19.20;55.80
5711;DHT22;61291;52.524;13.422;2023-04-28T09:40:02;19.20;55.70
5711;DHT22;61291;52.524;13.422;2023-04-28T09:42:43;19.40;56.00
5711;DHT22;61291;52.524;13.422;2023-04-28T09:45:12;19.50;55.90
5711;DHT22;61291;52.524;13.422;2023-04-28T09:47:43;19.70;56.00
5711;DHT22;61291;52.524;13.422;2023-04-28T09:50:11;19.60;55.40
5711;DHT22;61291;52.524;13.422;2023-04-28T09:52:43;19.70;55.50
5711;DHT22;61291;52.524;13.422;2023-04-28T09:55:11;19.90;55.20
5711;DHT22;61291;52.524;13.422;2023-04-28T09:57:38;20.10;55.30
5711;DHT22;61291;52.524;13.422;2023-04-28T10:00:05;20.20;55.10
5711;DHT22;61291;52.524;13.422;2023-04-28T10:02:34;20.70;55.40
5711;DHT22;61291;52.524;13.422;2023-04-28T10:05:00;21.10;55.70
5711;DHT22;61291;52.524;13.422;2023-04-28T10:07:26;21.50;55.70
5711;DHT22;61291;52.524;13.422;2023-04-28T10:09:52;21.40;55.10
5711;DHT22;61291;52.524;13.422;2023-04-28T10:12:20;21.30;54.50
5711;DHT22;61291;52.524;13.422;2023-04-28T10:14:47;21.50;54.70
5711;DHT22;61291;52.524;13.422;2023-04-28T10:17:19;21.90;54.70
5711;DHT22;61291;52.524;13.422;2023-04-28T10:19:47;22.10;54.40
5711;DHT22;61291;52.524;13.422;2023-04-28T10:22:17;22.10;54.70
5711;DHT22;61291;52.524;13.422;2023-04-28T10:27:30;22.20;54.70
5711;DHT22;61291;52.524;13.422;2023-04-28T10:30:12;22.00;54.60
5711;DHT22;61291;52.524;13.422;2023-04-28T10:32:38;21.90;54.30
5711;DHT22;61291;52.524;13.422;2023-04-28T10:38:11;21.40;54.10
5711;DHT22;61291;52.524;13.422;2023-04-28T10:41:10;21.40;54.10
5711;DHT22;61291;52.524;13.422;2023-04-28T10:46:03;21.40;54.70
5711;DHT22;61291;52.524;13.422;2023-04-28T10:56:22;22.10;54.50
5711;DHT22;61291;52.524;13.422;2023-04-28T10:58:50;22.20;54.40
5711;DHT22;61291;52.524;13.422;2023-04-28T11:03:58;22.50;54.20
5711;DHT22;61291;52.524;13.422;2023-04-28T11:06:37;22.80;54.30
5711;DHT22;61291;52.524;13.422;2023-04-28T11:17:09;23.40;53.80
5711;DHT22;61291;52.524;13.422;2023-04-28T11:19:37;23.60;53.10
5711;DHT22;61291;52.524;13.422;2023-04-28T11:22:04;23.60;53.00
5711;DHT22;61291;52.524;13.422;2023-04-28T11:24:36;23.70;53.10
5711;DHT22;61291;52.524;13.422;2023-04-28T11:27:01;23.80;53.30
5711;DHT22;61291;52.524;13.422;2023-04-28T11:29:38;24.10;53.30
5711;DHT22;61291;52.524;13.422;2023-04-28T11:32:09;24.20;52.80
5711;DHT22;61291;52.524;13.422;2023-04-28T11:34:35;24.30;52.80
5711;DHT22;61291;52.524;13.422;2023-04-28T11:37:02;24.50;53.00
5711;DHT22;61291;52.524;13.422;2023-04-28T11:39:32;24.60;52.70
5711;DHT22;61291;52.524;13.422;2023-04-28T11:42:08;24.90;52.70
5711;DHT22;61291;52.524;13.422;2023-04-28T11:44:34;25.00;52.50
5711;DHT22;61291;52.524;13.422;2023-04-28T11:47:01;24.90;52.30
5711;DHT22;61291;52.524;13.422;2023-04-28T11:51:56;24.90;52.20
5711;DHT22;61291;52.524;13.422;2023-04-28T11:54:23;25.20;52.10
5711;DHT22;61291;52.524;13.422;2023-04-28T11:56:50;25.50;51.60
5711;DHT22;61291;52.524;13.422;2023-04-28T11:59:16;25.60;51.50
5711;DHT22;61291;52.524;13.422;2023-04-28T12:01:52;25.70;51.60
5711;DHT22;61291;52.524;13.422;2023-04-28T12:04:34;25.80;51.40
5711;DHT22;61291;52.524;13.422;2023-04-28T12:07:05;25.90;51.60
5711;DHT22;61291;52.524;13.422;2023-04-28T12:09:32;26.00;51.20
5711;DHT22;61291;52.524;13.422;2023-04-28T12:12:05;26.00;51.00
5711;DHT22;61291;52.524;13.422;2023-04-28T12:14:33;26.00;51.00
5711;DHT22;61291;52.524;13.422;2023-04-28T12:17:32;25.80;50.70
5711;DHT22;61291;52.524;13.422;2023-04-28T12:20:01;25.90;51.10
5711;DHT22;61291;52.524;13.422;2023-04-28T12:22:27;26.00;51.00
5711;DHT22;61291;52.524;13.422;2023-04-28T12:25:09;25.90;50.70
5711;DHT22;61291;52.524;13.422;2023-04-28T12:27:37;26.00;50.60
5711;DHT22;61291;52.524;13.422;2023-04-28T12:32:46;26.30;50.80
5711;DHT22;61291;52.524;13.422;2023-04-28T12:35:12;26.10;50.90
5711;DHT22;61291;52.524;13.422;2023-04-28T12:37:38;26.20;51.00
5711;DHT22;61291;52.524;13.422;2023-04-28T12:40:06;26.10;50.80
5711;DHT22;61291;52.524;13.422;2023-04-28T12:42:32;25.90;50.80
5711;DHT22;61291;52.524;13.422;2023-04-28T12:44:57;25.70;51.20
5711;DHT22;61291;52.524;13.422;2023-04-28T12:47:23;25.50;50.90
5711;DHT22;61291;52.524;13.422;2023-04-28T12:49:49;25.50;51.10
5711;DHT22;61291;52.524;13.422;2023-04-28T12:52:20;25.60;51.00
5711;DHT22;61291;52.524;13.422;2023-04-28T12:54:47;25.50;51.00
5711;DHT22;61291;52.524;13.422;2023-04-28T12:57:14;25.70;51.10
5711;DHT22;61291;52.524;13.422;2023-04-28T12:59:39;25.80;51.20
5711;DHT22;61291;52.524;13.422;2023-04-28T13:02:05;25.90;51.00
5711;DHT22;61291;52.524;13.422;2023-04-28T13:04:33;25.80;50.90
5711;DHT22;61291;52.524;13.422;2023-04-28T13:06:59;25.70;50.90
5711;DHT22;61291;52.524;13.422;2023-04-28T13:09:25;25.80;50.90
5711;DHT22;61291;52.524;13.422;2023-04-28T13:11:51;25.70;50.90
5711;DHT22;61291;52.524;13.422;2023-04-28T13:14:20;25.70;50.90
5711;DHT22;61291;52.524;13.422;2023-04-28T13:16:46;25.50;50.90
5711;DHT22;61291;52.524;13.422;2023-04-28T13:19:12;25.30;51.00
5711;DHT22;61291;52.524;13.422;2023-04-28T13:21:42;25.30;51.30
5711;DHT22;61291;52.524;13.422;2023-04-28T13:24:08;25.20;51.40
5711;DHT22;61291;52.524;13.422;2023-04-28T13:26:34;25.00;51.40
5711;DHT22;61291;52.524;13.422;2023-04-28T13:29:00;24.80;51.60
5711;DHT22;61291;52.524;13.422;2023-04-28T13:31:27;24.90;51.70
5711;DHT22;61291;52.524;13.422;2023-04-28T13:33:53;25.00;51.90
5711;DHT22;61291;52.524;13.422;2023-04-28T13:36:19;25.00;52.00
5711;DHT22;61291;52.524;13.422;2023-04-28T13:38:44;24.80;52.00
5711;DHT22;61291;52.524;13.422;2023-04-28T13:41:16;24.70;52.00
5711;DHT22;61291;52.524;13.422;2023-04-28T13:43:43;24.50;52.10
5711;DHT22;61291;52.524;13.422;2023-04-28T13:46:09;24.50;52.40
5711;DHT22;61291;52.524;13.422;2023-04-28T13:48:35;24.30;52.50
5711;DHT22;61291;52.524;13.422;2023-04-28T13:51:01;24.10;52.80
5711;DHT22;61291;52.524;13.422;2023-04-28T13:53:27;24.10;53.00
5711;DHT22;61291;52.524;13.422;2023-04-28T13:55:52;23.90;53.00
5711;DHT22;61291;52.524;13.422;2023-04-28T13:58:28;23.60;53.20
5711;DHT22;61291;52.524;13.422;2023-04-28T14:00:54;23.40;53.70
5711;DHT22;61291;52.524;13.422;2023-04-28T14:03:20;22.80;54.40
5711;DHT22;61291;52.524;13.422;2023-04-28T14:05:51;22.40;55.00
5711;DHT22;61291;52.524;13.422;2023-04-28T14:08:17;22.00;55.40
5711;DHT22;61291;52.524;13.422;2023-04-28T14:10:43;21.70;56.20
5711;DHT22;61291;52.524;13.422;2023-04-28T14:13:09;21.40;56.20
5711;DHT22;61291;52.524;13.422;2023-04-28T14:15:34;21.10;56.60
5711;DHT22;61291;52.524;13.422;2023-04-28T14:18:01;20.80;56.90
5711;DHT22;61291;52.524;13.422;2023-04-28T14:20:26;20.70;57.30
5711;DHT22;61291;52.524;13.422;2023-04-28T14:22:52;20.50;57.70
5711;DHT22;61291;52.524;13.422;2023-04-28T14:25:17;20.20;58.20
5711;DHT22;61291;52.524;13.422;2023-04-28T14:27:43;20.20;58.40
5711;DHT22;61291;52.524;13.422;2023-04-28T14:30:09;20.10;58.60
5711;DHT22;61291;52.524;13.422;2023-04-28T14:32:36;20.00;58.70
5711;DHT22;61291;52.524;13.422;2023-04-28T14:35:03;19.90;59.10
5711;DHT22;61291;52.524;13.422;2023-04-28T14:37:30;19.70;59.20
5711;DHT22;61291;52.524;13.422;2023-04-28T14:39:56;19.60;59.30
5711;DHT22;61291;52.524;13.422;2023-04-28T14:42:28;19.40;59.40
5711;DHT22;61291;52.524;13.422;2023-04-28T14:45:00;19.20;59.70
5711;DHT22;61291;52.524;13.422;2023-04-28T14:47:26;19.00;59.60
5711;DHT22;61291;52.524;13.422;2023-04-28T14:49:52;18.80;59.70
5711;DHT22;61291;52.524;13.422;2023-04-28T14:52:19;18.80;60.10
5711;DHT22;61291;52.524;13.422;2023-04-28T14:54:49;18.70;60.50
5711;DHT22;61291;52.524;13.422;2023-04-28T14:57:15;18.60;60.70
5711;DHT22;61291;52.524;13.422;2023-04-28T14:59:41;18.50;61.00
5711;DHT22;61291;52.524;13.422;2023-04-28T15:02:07;18.50;61.00
5711;DHT22;61291;52.524;13.422;2023-04-28T15:04:33;18.40;61.10
5711;DHT22;61291;52.524;13.422;2023-04-28T15:06:58;18.40;61.10
5711;DHT22;61291;52.524;13.422;2023-04-28T15:09:25;18.40;61.00
5711;DHT22;61291;52.524;13.422;2023-04-28T15:11:51;18.40;61.10
5711;DHT22;61291;52.524;13.422;2023-04-28T15:14:16;18.50;61.40
5711;DHT22;61291;52.524;13.422;2023-04-28T15:16:43;18.60;61.50
5711;DHT22;61291;52.524;13.422;2023-04-28T15:19:09;18.80;61.70
5711;DHT22;61291;52.524;13.422;2023-04-28T15:21:35;18.90;61.60
5711;DHT22;61291;52.524;13.422;2023-04-28T15:24:01;19.20;61.80
5711;DHT22;61291;52.524;13.422;2023-04-28T15:26:26;19.20;61.50
5711;DHT22;61291;52.524;13.422;2023-04-28T15:28:52;19.30;61.40
5711;DHT22;61291;52.524;13.422;2023-04-28T15:31:18;19.20;61.20
5711;DHT22;61291;52.524;13.422;2023-04-28T15:33:44;19.10;61.30
5711;DHT22;61291;52.524;13.422;2023-04-28T15:36:10;19.10;61.50
5711;DHT22;61291;52.524;13.422;2023-04-28T15:38:36;19.00;61.60
5711;DHT22;61291;52.524;13.422;2023-04-28T15:41:02;18.80;61.70
5711;DHT22;61291;52.524;13.422;2023-04-28T15:43:28;18.70;62.10
5711;DHT22;61291;52.524;13.422;2023-04-28T15:45:53;18.50;62.40
5711;DHT22;61291;52.524;13.422;2023-04-28T15:48:19;18.50;62.70
5711;DHT22;61291;52.524;13.422;2023-04-28T15:50:44;18.40;62.90
5711;DHT22;61291;52.524;13.422;2023-04-28T15:53:10;18.30;63.30
5711;DHT22;61291;52.524;13.422;2023-04-28T15:55:36;18.30;63.30
5711;DHT22;61291;52.524;13.422;2023-04-28T15:58:02;18.20;63.20
5711;DHT22;61291;52.524;13.422;2023-04-28T16:00:27;18.30;63.50
5711;DHT22;61291;52.524;13.422;2023-04-28T16:02:53;18.30;64.10
5711;DHT22;61291;52.524;13.422;2023-04-28T16:05:19;18.30;64.00
5711;DHT22;61291;52.524;13.422;2023-04-28T16:07:44;18.30;65.30